createdAt,value
2022-09-28T00:00:26.870Z,21.3500
2022-09-28T00:01:29.312Z,21.3500
2022-09-28T00:02:31.647Z,21.3300
2022-09-28T00:03:31.639Z,21.3800
2022-09-28T00:04:33.994Z,21.3400
2022-09-28T00:05:34.151Z,21.3600
2022-09-28T00:06:36.482Z,21.3900
2022-09-28T00:07:38.746Z,21.4000
2022-09-28T00:08:41.047Z,21.4200
2022-09-28T00:09:43.308Z,21.4200
2022-09-28T00:10:45.647Z,21.4200
2022-09-28T00:11:45.841Z,21.4000
2022-09-28T00:12:48.107Z,21.3900
2022-09-28T00:13:50.368Z,21.3800
2022-09-28T00:14:52.657Z,21.3600
2022-09-28T00:15:54.982Z,21.4000
2022-09-28T00:16:57.266Z,21.3900
2022-09-28T00:17:59.526Z,21.3700
2022-09-28T00:19:01.829Z,21.3400
2022-09-28T00:20:01.990Z,21.3300
2022-09-28T00:21:04.265Z,21.3200
2022-09-28T00:22:06.584Z,21.3200
2022-09-28T00:23:08.890Z,21.3300
2022-09-28T00:24:11.193Z,21.3300
2022-09-28T00:25:13.512Z,21.3400
2022-09-28T00:26:13.681Z,21.3400
2022-09-28T00:27:16.117Z,21.3500
2022-09-28T00:28:18.373Z,21.3600
2022-09-28T00:29:20.722Z,21.3800
2022-09-28T00:30:23.078Z,21.3400
2022-09-28T00:31:23.390Z,21.3100
2022-09-28T00:32:25.684Z,21.3000
2022-09-28T00:33:28.010Z,21.2900
2022-09-28T00:34:30.374Z,21.2800
2022-09-28T00:35:32.742Z,21.2900
2022-09-28T00:36:32.894Z,21.2900
2022-09-28T00:37:35.275Z,21.3100
2022-09-28T00:38:37.558Z,21.3200
2022-09-28T00:39:39.908Z,21.3100
2022-09-28T00:40:42.231Z,21.3200
2022-09-28T00:41:42.317Z,21.3000
2022-09-28T00:42:44.642Z,21.3200
2022-09-28T00:43:46.943Z,21.3500
2022-09-28T00:44:49.282Z,21.3300
2022-09-28T00:45:51.639Z,21.3100
2022-09-28T00:46:53.964Z,21.2900
2022-09-28T00:47:54.208Z,21.3100
2022-09-28T00:48:56.435Z,21.3200
2022-09-28T00:49:58.703Z,21.3200
2022-09-28T00:51:00.989Z,21.3100
2022-09-28T00:52:03.261Z,21.3100
2022-09-28T00:53:05.663Z,21.3500
2022-09-28T00:54:05.786Z,21.3300
2022-09-28T00:55:08.126Z,21.3100
2022-09-28T00:56:10.456Z,21.3000
2022-09-28T00:57:12.752Z,21.2700
2022-09-28T00:58:15.123Z,21.2800
2022-09-28T00:59:17.545Z,21.2900
2022-09-28T01:00:17.589Z,21.2900
2022-09-28T01:01:19.957Z,21.2900
2022-09-28T01:02:22.262Z,21.3100
2022-09-28T01:03:24.601Z,21.3000
2022-09-28T01:04:29.818Z,21.2800
2022-09-28T01:05:29.141Z,21.2700
2022-09-28T01:06:29.307Z,21.2900
2022-09-28T01:07:31.583Z,21.3200
2022-09-28T01:08:33.888Z,21.2900
2022-09-28T01:09:36.196Z,21.3300
2022-09-28T01:10:38.438Z,21.3300
2022-09-28T01:11:40.759Z,21.3100
2022-09-28T01:12:43.090Z,21.3300
2022-09-28T01:13:43.292Z,21.3100
2022-09-28T01:14:45.611Z,21.2900
2022-09-28T01:15:47.890Z,21.2700
2022-09-28T01:16:50.264Z,21.2800
2022-09-28T01:17:52.487Z,21.2700
2022-09-28T01:18:52.652Z,21.2700
2022-09-28T01:19:54.972Z,21.2500
2022-09-28T01:20:57.270Z,21.2400
2022-09-28T01:21:59.559Z,21.2400
2022-09-28T01:23:01.746Z,21.2800
2022-09-28T01:24:04.009Z,21.2800
2022-09-28T01:25:06.243Z,21.2800
2022-09-28T01:26:08.504Z,21.2500
2022-09-28T01:27:08.615Z,21.2500
2022-09-28T01:28:10.892Z,21.2100
2022-09-28T01:29:13.224Z,21.2600
2022-09-28T01:30:15.408Z,21.2400
2022-09-28T01:31:17.700Z,21.2400
2022-09-28T01:32:19.895Z,21.2300
2022-09-28T01:34:11.736Z,21.2400
2022-09-28T01:35:14.031Z,21.2500
2022-09-28T01:36:16.287Z,21.2400
2022-09-28T01:37:16.476Z,21.2400
2022-09-28T01:38:18.780Z,21.2300
2022-09-28T01:39:21.105Z,21.2400
2022-09-28T01:40:23.491Z,21.2600
2022-09-28T01:41:25.741Z,21.2400
2022-09-28T01:42:28.061Z,21.2200
2022-09-28T01:43:28.233Z,21.2300
2022-09-28T01:44:30.551Z,21.2600
2022-09-28T01:45:32.988Z,21.2400
2022-09-28T01:46:35.181Z,21.2300
2022-09-28T01:47:37.455Z,21.2800
2022-09-28T01:48:39.726Z,21.2400
2022-09-28T01:49:39.855Z,21.2100
2022-09-28T01:50:42.171Z,21.2000
2022-09-28T01:51:44.430Z,21.1900
2022-09-28T01:52:46.770Z,21.2000
2022-09-28T01:53:49.065Z,21.2300
2022-09-28T01:54:51.376Z,21.2200
2022-09-28T01:55:53.722Z,21.2400
2022-09-28T01:56:53.850Z,21.2400
2022-09-28T01:57:56.169Z,21.2300
2022-09-28T01:58:58.492Z,21.2100
2022-09-28T02:00:00.755Z,21.2200
2022-09-28T02:01:03.231Z,21.2000
2022-09-28T02:02:05.432Z,21.2200
2022-09-28T02:03:05.548Z,21.2100
2022-09-28T02:04:07.834Z,21.1700
2022-09-28T02:05:10.123Z,21.1800
2022-09-28T02:06:12.439Z,21.1900
2022-09-28T02:07:14.705Z,21.1900
2022-09-28T02:08:17.026Z,21.1700
2022-09-28T02:09:17.311Z,21.1600
2022-09-28T02:10:19.412Z,21.1700
2022-09-28T02:11:21.751Z,21.1600
2022-09-28T02:12:24.025Z,21.1900
2022-09-28T02:13:26.358Z,21.2300
2022-09-28T02:14:28.716Z,21.2400
2022-09-28T02:15:28.906Z,21.2700
2022-09-28T02:16:31.385Z,21.2400
2022-09-28T02:17:33.523Z,21.2100
2022-09-28T02:18:35.848Z,21.2100
2022-09-28T02:19:38.193Z,21.1900
2022-09-28T02:20:40.525Z,21.1800
2022-09-28T02:21:40.729Z,21.1600
2022-09-28T02:22:42.984Z,21.1500
2022-09-28T02:23:45.278Z,21.1700
2022-09-28T02:24:47.485Z,21.1500
2022-09-28T02:25:49.719Z,21.1600
2022-09-28T02:26:52.023Z,21.1900
2022-09-28T02:27:54.325Z,21.1600
2022-09-28T02:28:54.509Z,21.1500
2022-09-28T02:29:56.848Z,21.1600
2022-09-28T02:30:59.203Z,21.1500
2022-09-28T02:32:01.560Z,21.1400
2022-09-28T02:33:03.862Z,21.1200
2022-09-28T02:34:04.058Z,21.1200
2022-09-28T02:35:06.407Z,21.1300
2022-09-28T02:36:08.754Z,21.1400
2022-09-28T02:37:11.136Z,21.1400
2022-09-28T02:38:13.421Z,21.1200
2022-09-28T02:39:15.741Z,21.1300
2022-09-28T02:40:15.939Z,21.1200
2022-09-28T02:41:18.204Z,21.1500
2022-09-28T02:42:20.570Z,21.1500
2022-09-28T02:43:22.873Z,21.1500
2022-09-28T02:44:25.197Z,21.1200
2022-09-28T02:45:25.449Z,21.1500
2022-09-28T02:46:27.746Z,21.1700
2022-09-28T02:47:30.096Z,21.1500
2022-09-28T02:49:00.101Z,21.1400
2022-09-28T02:49:34.749Z,21.1000
2022-09-28T02:50:34.845Z,21.1300
2022-09-28T02:51:37.161Z,21.1700
2022-09-28T02:52:39.500Z,21.1900
2022-09-28T02:53:41.773Z,21.1800
2022-09-28T02:54:44.054Z,21.1900
2022-09-28T02:55:46.245Z,21.1600
2022-09-28T02:56:48.527Z,21.1700
2022-09-28T02:57:50.809Z,21.1800
2022-09-28T02:58:50.866Z,21.1600
2022-09-28T02:59:53.092Z,21.1900
2022-09-28T03:00:55.305Z,21.1600
2022-09-28T03:01:57.517Z,21.1500
2022-09-28T03:02:59.707Z,21.1100
2022-09-28T03:04:01.933Z,21.1300
2022-09-28T03:05:04.169Z,21.1400
2022-09-28T03:06:06.409Z,21.1500
2022-09-28T03:07:08.693Z,21.1700
2022-09-28T03:08:11.044Z,21.1700
2022-09-28T03:09:13.362Z,21.1400
2022-09-28T03:10:13.488Z,21.1400
2022-09-28T03:11:15.782Z,21.1200
2022-09-28T03:12:18.084Z,21.1400
2022-09-28T03:13:20.403Z,21.1500
2022-09-28T03:14:22.670Z,21.1600
2022-09-28T03:15:24.971Z,21.1500
2022-09-28T03:16:25.234Z,21.1500
2022-09-28T03:17:27.456Z,21.1600
2022-09-28T03:18:29.763Z,21.1300
2022-09-28T03:19:32.046Z,21.0900
2022-09-28T03:20:34.360Z,21.0800
2022-09-28T03:21:36.649Z,21.0700
2022-09-28T03:22:36.793Z,21.0400
2022-09-28T03:23:39.117Z,21.0600
2022-09-28T03:24:41.382Z,21.0900
2022-09-28T03:25:43.750Z,21.1100
2022-09-28T03:26:45.891Z,21.0900
2022-09-28T03:27:48.140Z,21.0700
2022-09-28T03:28:50.402Z,21.0900
2022-09-28T03:29:52.657Z,21.1100
2022-09-28T03:31:29.430Z,21.0800
2022-09-28T03:32:31.507Z,21.0700
2022-09-28T03:33:33.783Z,21.0900
2022-09-28T03:34:36.046Z,21.1100
2022-09-28T03:35:38.241Z,21.0900
2022-09-28T03:36:40.483Z,21.0700
2022-09-28T03:37:42.727Z,21.0600
2022-09-28T03:38:44.993Z,21.0400
2022-09-28T03:39:45.140Z,21.0900
2022-09-28T03:40:47.532Z,21.1300
2022-09-28T03:41:49.709Z,21.1200
2022-09-28T03:42:51.967Z,21.0900
2022-09-28T03:43:54.200Z,21.0800
2022-09-28T03:44:56.509Z,21.1000
2022-09-28T03:45:58.857Z,21.0700
2022-09-28T03:47:01.106Z,21.0600
2022-09-28T03:48:01.249Z,21.0700
2022-09-28T03:49:03.553Z,21.0600
2022-09-28T03:50:05.916Z,21.0500
2022-09-28T03:51:08.189Z,21.0600
2022-09-28T03:52:10.472Z,21.0600
2022-09-28T03:53:12.791Z,21.0400
2022-09-28T03:54:12.957Z,21.0300
2022-09-28T03:55:15.335Z,21.0300
2022-09-28T03:56:17.656Z,21.0400
2022-09-28T03:57:19.967Z,21.0500
2022-09-28T03:58:22.316Z,21.0500
2022-09-28T03:59:22.494Z,21.0300
2022-09-28T04:00:27.010Z,21.0100
2022-09-28T04:00:37.794Z,21.0000
2022-09-28T04:01:40.175Z,20.9700
2022-09-28T04:02:42.370Z,21.0000
2022-09-28T04:03:42.532Z,21.0100
2022-09-28T04:04:44.868Z,21.0300
2022-09-28T04:05:47.232Z,21.0300
2022-09-28T04:06:49.550Z,21.0200
2022-09-28T04:07:51.890Z,21.0200
2022-09-28T04:08:54.241Z,21.0100
2022-09-28T04:09:54.397Z,21.0000
2022-09-28T04:10:56.717Z,20.9900
2022-09-28T04:12:03.972Z,21.0100
2022-09-28T04:13:01.367Z,21.0000
2022-09-28T04:14:03.713Z,21.0200
2022-09-28T04:15:06.053Z,21.0300
2022-09-28T04:16:06.272Z,21.0300
2022-09-28T04:17:08.552Z,21.0300
2022-09-28T04:18:10.878Z,21.0500
2022-09-28T04:19:13.293Z,21.0300
2022-09-28T04:20:15.555Z,21.0400
2022-09-28T04:21:15.666Z,21.0400
2022-09-28T04:22:17.811Z,21.0400
2022-09-28T04:23:20.005Z,21.0400
2022-09-28T04:24:22.208Z,21.0600
2022-09-28T04:25:24.411Z,21.0700
2022-09-28T04:26:26.643Z,21.0400
2022-09-28T04:27:28.848Z,21.0200
2022-09-28T04:28:31.060Z,21.0100
2022-09-28T04:29:33.308Z,21.0100
2022-09-28T04:30:35.555Z,21.0200
2022-09-28T04:31:37.899Z,21.0600
2022-09-28T04:32:40.052Z,21.0500
2022-09-28T04:33:40.162Z,21.0700
2022-09-28T04:34:44.349Z,21.0600
2022-09-28T04:35:44.611Z,21.0500
2022-09-28T04:36:46.876Z,21.0600
2022-09-28T04:37:49.091Z,21.0800
2022-09-28T04:38:53.606Z,21.0600
2022-09-28T04:39:53.594Z,21.0300
2022-09-28T04:40:55.918Z,21.0700
2022-09-28T04:41:58.126Z,21.1000
2022-09-28T04:43:00.360Z,21.0700
2022-09-28T04:44:00.449Z,21.0600
2022-09-28T04:45:02.682Z,21.0500
2022-09-28T04:46:04.992Z,21.0400
2022-09-28T04:47:07.177Z,21.0800
2022-09-28T04:48:09.389Z,21.0800
2022-09-28T04:49:11.641Z,21.0600
2022-09-28T04:50:13.876Z,21.0500
2022-09-28T04:51:16.128Z,21.0700
2022-09-28T04:52:18.813Z,21.0500
2022-09-28T04:53:20.647Z,21.0500
2022-09-28T04:54:20.749Z,21.0600
2022-09-28T04:55:22.949Z,21.0500
2022-09-28T04:56:25.206Z,21.0700
2022-09-28T04:57:27.538Z,21.0900
2022-09-28T04:58:29.885Z,21.0700
2022-09-28T04:59:32.168Z,21.0600
2022-09-28T05:00:34.504Z,21.0600
2022-09-28T05:01:36.882Z,21.0300
2022-09-28T05:02:37.078Z,21.0400
2022-09-28T05:03:39.338Z,21.0300
2022-09-28T05:04:41.624Z,21.0500
2022-09-28T05:05:43.951Z,21.0700
2022-09-28T05:06:46.323Z,21.1000
2022-09-28T05:07:48.706Z,21.0800
2022-09-28T05:08:51.057Z,21.0200
2022-09-28T05:09:53.410Z,21.0300
2022-09-28T05:10:55.763Z,21.0300
2022-09-28T05:11:55.967Z,21.0300
2022-09-28T05:12:58.356Z,21.0100
2022-09-28T05:14:00.712Z,21.0400
2022-09-28T05:15:03.067Z,21.0100
2022-09-28T05:16:05.814Z,21.0300
2022-09-28T05:17:05.636Z,21.0000
2022-09-28T05:18:08.030Z,21.0300
2022-09-28T05:19:10.369Z,20.9800
2022-09-28T05:20:12.617Z,21.0700
2022-09-28T05:21:14.847Z,21.0400
2022-09-28T05:22:14.965Z,21.0700
2022-09-28T05:23:17.117Z,21.0100
2022-09-28T05:24:19.347Z,20.9900
2022-09-28T05:25:21.598Z,20.9900
2022-09-28T05:26:23.835Z,20.9900
2022-09-28T05:27:26.057Z,20.9800
2022-09-28T05:28:28.350Z,20.9600
2022-09-28T05:29:32.440Z,20.9500
2022-09-28T05:30:32.854Z,20.9500
2022-09-28T05:31:35.147Z,20.9800
2022-09-28T05:32:37.289Z,20.9800
2022-09-28T05:33:37.419Z,20.9900
2022-09-28T05:34:39.669Z,20.9900
2022-09-28T05:35:41.964Z,20.9800
2022-09-28T05:36:44.254Z,20.9600
2022-09-28T05:37:46.508Z,20.9400
2022-09-28T05:38:48.782Z,20.9200
2022-09-28T05:39:48.895Z,20.9500
2022-09-28T05:40:51.199Z,20.9400
2022-09-28T05:41:51.281Z,20.9700
2022-09-28T05:42:53.564Z,20.9500
2022-09-28T05:43:55.895Z,20.9500
2022-09-28T05:44:58.178Z,20.9600
2022-09-28T05:46:00.637Z,20.9700
2022-09-28T05:47:02.757Z,20.9500
2022-09-28T05:48:05.048Z,20.9300
2022-09-28T05:49:06.230Z,20.9200
2022-09-28T05:50:08.448Z,20.8400
2022-09-28T05:50:18.199Z,20.8200
2022-09-28T05:51:20.497Z,20.8600
2022-09-28T05:52:22.797Z,20.8900
2022-09-28T05:53:25.130Z,20.9100
2022-09-28T05:54:27.439Z,20.9200
2022-09-28T05:55:29.908Z,20.9300
2022-09-28T05:56:29.963Z,20.9100
2022-09-28T05:57:32.279Z,20.9100
2022-09-28T05:58:34.607Z,20.9300
2022-09-28T05:59:36.989Z,20.9300
2022-09-28T06:00:39.316Z,20.9400
2022-09-28T06:01:39.527Z,20.9300
2022-09-28T06:02:41.785Z,20.9200
2022-09-28T06:03:44.043Z,20.9200
2022-09-28T06:04:46.341Z,20.9000
2022-09-28T06:05:48.591Z,20.9000
2022-09-28T06:06:50.849Z,20.9200
2022-09-28T06:07:53.104Z,20.9800
2022-09-28T06:08:55.358Z,20.9700
2022-09-28T06:09:55.496Z,20.9500
2022-09-28T06:10:57.724Z,20.9400
2022-09-28T06:11:59.977Z,20.9400
2022-09-28T06:13:02.247Z,20.9300
2022-09-28T06:14:04.479Z,20.9400
2022-09-28T06:15:06.760Z,20.9100
2022-09-28T06:16:09.040Z,20.9000
2022-09-28T06:17:11.228Z,20.9000
2022-09-28T06:18:13.461Z,20.9100
2022-09-28T06:19:15.692Z,20.9100
2022-09-28T06:20:15.799Z,20.9000
2022-09-28T06:21:18.046Z,20.9000
2022-09-28T06:22:20.302Z,20.9000
2022-09-28T06:23:22.567Z,20.8900
2022-09-28T06:24:24.768Z,20.8800
2022-09-28T06:25:27.029Z,20.8700
2022-09-28T06:26:29.229Z,20.8800
2022-09-28T06:27:31.515Z,20.8900
2022-09-28T06:28:33.774Z,20.9000
2022-09-28T06:29:33.850Z,20.9200
2022-09-28T06:30:36.129Z,20.9200
2022-09-28T06:31:38.381Z,20.9100
2022-09-28T06:32:40.627Z,20.9300
2022-09-28T06:33:42.891Z,20.9200
2022-09-28T06:34:45.166Z,20.8800
2022-09-28T06:35:47.480Z,20.8800
2022-09-28T06:36:49.747Z,20.8600
2022-09-28T06:37:49.836Z,20.8800
2022-09-28T06:38:52.078Z,20.9000
2022-09-28T06:39:54.361Z,20.9300
2022-09-28T06:40:56.671Z,20.9300
2022-09-28T06:41:58.870Z,20.9200
2022-09-28T06:43:01.182Z,20.9400
2022-09-28T06:44:03.491Z,20.9300
2022-09-28T06:45:05.802Z,20.9200
2022-09-28T06:46:06.053Z,20.9600
2022-09-28T06:47:08.284Z,20.9600
2022-09-28T06:48:10.541Z,20.9400
2022-09-28T06:49:16.160Z,20.9400
2022-09-28T06:50:15.141Z,20.9500
2022-09-28T06:51:17.430Z,20.9300
2022-09-28T06:52:19.695Z,20.9600
2022-09-28T06:53:19.899Z,20.9700
2022-09-28T06:54:22.250Z,20.9500
2022-09-28T06:55:24.602Z,20.9500
2022-09-28T06:56:31.945Z,20.9400
2022-09-28T06:57:27.166Z,20.9000
2022-09-28T06:58:29.513Z,20.9300
2022-09-28T06:59:31.877Z,20.9400
2022-09-28T07:00:34.224Z,20.9100
2022-09-28T07:01:36.663Z,20.8900
2022-09-28T07:02:36.876Z,20.8700
2022-09-28T07:03:39.031Z,20.9000
2022-09-28T07:04:41.310Z,20.9100
2022-09-28T07:05:43.585Z,20.9300
2022-09-28T07:06:45.903Z,20.9100
2022-09-28T07:07:48.154Z,20.9100
2022-09-28T07:09:05.691Z,20.9400
2022-09-28T07:09:54.648Z,20.9200
2022-09-28T07:10:52.923Z,20.9300
2022-09-28T07:11:55.162Z,20.9500
2022-09-28T07:12:57.383Z,20.9400
2022-09-28T07:13:59.649Z,20.9600
2022-09-28T07:15:01.974Z,20.9200
2022-09-28T07:16:04.262Z,20.9600
2022-09-28T07:17:13.626Z,20.9500
2022-09-28T07:18:06.811Z,20.9100
2022-09-28T07:19:09.103Z,20.9000
2022-09-28T07:20:18.665Z,20.9000
2022-09-28T07:21:26.669Z,20.8700
2022-09-28T07:22:19.115Z,20.8600
2022-09-28T07:23:19.578Z,20.8600
2022-09-28T07:24:18.869Z,20.8700
2022-09-28T07:25:21.109Z,20.9000
2022-09-28T07:26:24.738Z,20.8700
2022-09-28T07:27:28.763Z,20.8800
2022-09-28T07:28:26.037Z,20.8600
2022-09-28T07:29:28.357Z,20.8800
2022-09-28T07:30:30.805Z,20.9000
2022-09-28T07:31:33.051Z,20.9200
2022-09-28T07:32:33.241Z,20.9100
2022-09-28T07:33:35.613Z,20.8900
2022-09-28T07:34:37.922Z,20.9000
2022-09-28T07:35:40.227Z,20.9100
2022-09-28T07:36:42.505Z,20.9200
2022-09-28T07:37:43.110Z,20.9500
2022-09-28T07:38:45.023Z,20.9600
2022-09-28T07:39:47.384Z,20.9400
2022-09-28T07:40:49.708Z,20.9600
2022-09-28T07:41:54.382Z,20.9400
2022-09-28T07:42:52.181Z,20.9100
2022-09-28T07:43:54.547Z,20.9200
2022-09-28T07:44:56.905Z,20.9100
2022-09-28T07:45:59.253Z,20.8900
2022-09-28T07:47:01.466Z,20.9000
2022-09-28T07:48:42.554Z,20.8900
2022-09-28T07:49:44.673Z,20.8700
2022-09-28T07:50:46.930Z,20.8800
2022-09-28T07:51:49.207Z,20.9000
2022-09-28T07:52:51.483Z,20.9100
2022-09-28T07:53:53.766Z,20.9500
2022-09-28T07:54:53.895Z,20.9400
2022-09-28T07:55:56.174Z,20.9300
2022-09-28T07:56:58.498Z,20.9500
2022-09-28T07:58:00.786Z,20.9700
2022-09-28T07:59:03.096Z,20.9800
2022-09-28T08:00:05.362Z,20.9700
2022-09-28T08:01:07.798Z,20.9700
2022-09-28T08:02:07.845Z,20.9500
2022-09-28T08:03:10.066Z,20.9500
2022-09-28T08:04:12.397Z,20.9600
2022-09-28T08:05:14.669Z,20.9500
2022-09-28T08:06:16.993Z,20.9600
2022-09-28T08:07:23.485Z,20.9600
2022-09-28T08:08:21.532Z,20.9500
2022-09-28T08:09:21.658Z,20.9400
2022-09-28T08:10:23.979Z,20.9400
2022-09-28T08:11:26.180Z,20.9300
2022-09-28T08:12:28.446Z,20.9500
2022-09-28T08:13:30.735Z,20.9500
2022-09-28T08:14:33.003Z,20.9600
2022-09-28T08:15:35.267Z,20.9400
2022-09-28T08:17:37.644Z,20.9500
2022-09-28T08:18:39.911Z,20.9800
2022-09-28T08:19:42.217Z,20.9900
2022-09-28T08:20:48.061Z,20.9700
2022-09-28T08:21:44.613Z,20.9300
2022-09-28T08:22:46.932Z,20.9400
2022-09-28T08:23:47.436Z,20.9500
2022-09-28T08:24:49.445Z,20.9400
2022-09-28T08:25:51.738Z,20.9700
2022-09-28T08:26:54.037Z,20.9900
2022-09-28T08:27:56.339Z,21.0000
2022-09-28T08:28:56.500Z,20.9900
2022-09-28T08:29:58.793Z,20.9700
2022-09-28T08:31:01.142Z,20.9900
2022-09-28T08:32:03.363Z,21.0100
2022-09-28T08:33:05.659Z,20.9900
2022-09-28T08:34:07.967Z,21.0300
2022-09-28T08:35:10.379Z,21.0300
2022-09-28T08:36:10.361Z,21.0200
2022-09-28T08:37:12.658Z,21.0100
2022-09-28T08:38:14.955Z,20.9900
2022-09-28T08:39:17.252Z,21.0100
2022-09-28T08:40:19.663Z,21.0100
2022-09-28T08:41:21.855Z,21.0100
2022-09-28T08:42:22.010Z,21.0100
2022-09-28T08:43:24.286Z,21.0200
2022-09-28T08:44:26.567Z,21.0100
2022-09-28T08:45:29.005Z,21.0300
2022-09-28T08:46:31.236Z,20.9900
2022-09-28T08:47:33.409Z,21.0000
2022-09-28T08:48:35.567Z,21.0000
2022-09-28T08:49:37.732Z,21.0400
2022-09-28T08:50:39.922Z,21.0700
2022-09-28T08:51:42.060Z,21.0500
2022-09-28T08:52:44.211Z,21.0300
2022-09-28T08:53:46.375Z,21.0400
2022-09-28T08:54:48.543Z,21.0200
2022-09-28T08:55:50.717Z,21.0200
2022-09-28T08:56:52.909Z,21.0100
2022-09-28T08:57:55.157Z,21.0300
2022-09-28T08:58:57.381Z,21.0300
2022-09-28T08:59:59.648Z,21.0100
2022-09-28T09:01:01.947Z,21.0000
2022-09-28T09:02:04.230Z,21.0000
2022-09-28T09:04:13.138Z,21.0100
2022-09-28T09:05:15.335Z,21.0300
2022-09-28T09:06:18.597Z,21.0800
2022-09-28T09:07:19.912Z,21.1000
2022-09-28T09:08:22.152Z,21.0800
2022-09-28T09:09:24.459Z,21.0900
2022-09-28T09:10:26.767Z,21.1000
2022-09-28T09:11:29.071Z,21.0800
2022-09-28T09:12:29.212Z,21.1000
2022-09-28T09:13:31.518Z,21.1100
2022-09-28T09:14:33.823Z,21.1300
2022-09-28T09:15:36.122Z,21.1300
2022-09-28T09:16:38.502Z,21.1400
2022-09-28T09:17:40.752Z,21.1300
2022-09-28T09:18:40.928Z,21.1400
2022-09-28T09:19:43.232Z,21.2100
2022-09-28T09:20:45.497Z,21.2000
2022-09-28T09:21:47.789Z,21.1600
2022-09-28T09:22:49.972Z,21.1600
2022-09-28T09:23:52.209Z,21.1600
2022-09-28T09:24:54.487Z,21.1700
2022-09-28T09:25:56.801Z,21.1900
2022-09-28T09:26:56.922Z,21.1800
2022-09-28T09:27:59.225Z,21.1900
2022-09-28T09:29:01.537Z,21.2000
2022-09-28T09:30:03.812Z,21.1800
2022-09-28T09:31:06.166Z,21.2000
2022-09-28T09:32:08.463Z,21.2200
2022-09-28T09:33:10.749Z,21.2100
2022-09-28T09:34:11.016Z,21.2000
2022-09-28T09:35:13.239Z,21.1800
2022-09-28T09:36:15.562Z,21.1600
2022-09-28T09:37:17.962Z,21.1800
2022-09-28T09:38:20.211Z,21.2000
2022-09-28T09:39:20.386Z,21.2100
2022-09-28T09:40:22.757Z,21.2100
2022-09-28T09:41:25.045Z,21.2700
2022-09-28T09:42:27.332Z,21.2700
2022-09-28T09:43:31.703Z,21.2900
2022-09-28T09:44:31.958Z,21.2900
2022-09-28T09:45:32.078Z,21.2900
2022-09-28T09:46:34.333Z,21.2900
2022-09-28T09:47:36.628Z,21.2900
2022-09-28T09:48:38.878Z,21.3200
2022-09-28T09:49:41.157Z,21.3200
2022-09-28T09:50:43.451Z,21.2900
2022-09-28T09:51:45.723Z,21.2900
2022-09-28T09:52:47.989Z,21.3200
2022-09-28T09:53:48.035Z,21.3200
2022-09-28T09:54:50.304Z,21.3100
2022-09-28T09:55:52.527Z,21.3100
2022-09-28T09:56:54.783Z,21.2900
2022-09-28T09:57:57.056Z,21.2900
2022-09-28T09:58:59.279Z,21.2900
2022-09-28T10:00:01.574Z,21.3000
2022-09-28T10:01:03.906Z,21.3000
2022-09-28T10:02:09.857Z,21.3000
2022-09-28T10:03:06.229Z,21.3000
2022-09-28T10:04:07.360Z,21.2200
2022-09-28T10:05:09.576Z,21.1900
2022-09-28T10:06:11.844Z,21.1400
2022-09-28T10:07:14.100Z,21.1000
2022-09-28T10:08:16.438Z,21.0900
2022-09-28T10:09:18.782Z,21.0700
2022-09-28T10:10:20.842Z,21.0600
2022-09-28T10:11:23.110Z,21.0400
2022-09-28T10:12:25.348Z,21.0500
2022-09-28T10:13:27.674Z,21.0300
2022-09-28T10:14:29.882Z,21.0400
2022-09-28T10:15:30.033Z,21.0300
2022-09-28T10:16:32.368Z,21.0300
2022-09-28T10:17:34.681Z,21.0400
2022-09-28T10:18:36.960Z,21.0500
2022-09-28T10:19:37.060Z,21.0600
2022-09-28T10:20:39.383Z,21.0800
2022-09-28T10:21:41.711Z,21.0800
2022-09-28T10:22:44.061Z,21.0900
2022-09-28T10:23:46.443Z,21.0900
2022-09-28T10:24:48.708Z,21.0800
2022-09-28T10:25:48.884Z,21.0900
2022-09-28T10:26:51.207Z,21.1000
2022-09-28T10:27:53.550Z,21.1100
2022-09-28T10:28:55.876Z,21.1000
2022-09-28T10:29:58.119Z,21.1000
2022-09-28T10:31:00.524Z,21.1200
2022-09-28T10:32:02.723Z,21.1300
2022-09-28T10:33:02.906Z,21.1300
2022-09-28T10:34:05.250Z,21.1600
2022-09-28T10:35:07.442Z,21.1600
2022-09-28T10:36:09.701Z,21.1900
2022-09-28T10:37:09.870Z,21.1500
2022-09-28T10:38:12.197Z,21.1400
2022-09-28T10:39:14.498Z,21.1500
2022-09-28T10:40:16.862Z,21.1500
2022-09-28T10:41:19.091Z,21.1500
2022-09-28T10:42:21.403Z,21.1800
2022-09-28T10:43:23.724Z,21.1600
2022-09-28T10:44:26.061Z,21.1400
2022-09-28T10:45:28.263Z,21.1500
2022-09-28T10:46:30.608Z,21.1600
2022-09-28T10:47:30.645Z,21.1400
2022-09-28T10:48:32.873Z,21.1600
2022-09-28T10:49:35.179Z,21.1700
2022-09-28T10:50:37.400Z,21.1600
2022-09-28T10:51:39.651Z,21.1400
2022-09-28T10:52:41.891Z,21.1600
2022-09-28T10:53:44.141Z,21.1600
2022-09-28T10:54:46.375Z,21.1700
2022-09-28T10:55:48.591Z,21.1900
2022-09-28T10:56:50.838Z,21.2200
2022-09-28T10:57:53.055Z,21.2300
2022-09-28T10:58:55.314Z,21.2000
2022-09-28T10:59:55.467Z,21.2100
2022-09-28T11:00:57.690Z,21.2200
2022-09-28T11:01:59.934Z,21.2300
2022-09-28T11:03:02.222Z,21.2500
2022-09-28T11:04:04.406Z,21.2400
2022-09-28T11:05:06.692Z,21.2200
2022-09-28T11:06:08.921Z,21.2500
2022-09-28T11:07:12.474Z,21.2600
2022-09-28T11:08:13.392Z,21.2300
2022-09-28T11:09:15.650Z,21.2300
2022-09-28T11:10:17.840Z,21.2200
2022-09-28T11:11:19.960Z,21.2400
2022-09-28T11:12:22.125Z,21.2400
2022-09-28T11:13:24.285Z,21.2200
2022-09-28T11:14:26.570Z,21.2100
2022-09-28T11:15:28.754Z,21.2100
2022-09-28T11:16:31.044Z,21.2200
2022-09-28T11:17:33.217Z,21.2300
2022-09-28T11:18:35.459Z,21.2200
2022-09-28T11:20:27.979Z,21.3400
2022-09-28T11:21:27.161Z,21.4300
2022-09-28T11:22:27.226Z,21.4900
2022-09-28T11:23:29.493Z,21.5100
2022-09-28T11:24:31.743Z,21.5400
2022-09-28T11:25:34.036Z,21.5600
2022-09-28T11:26:36.317Z,21.5700
2022-09-28T11:27:38.506Z,21.5600
2022-09-28T11:28:40.726Z,21.5700
2022-09-28T11:29:42.959Z,21.5800
2022-09-28T11:30:45.252Z,21.5800
2022-09-28T11:31:45.280Z,21.5700
2022-09-28T11:32:47.476Z,21.5900
2022-09-28T11:33:49.653Z,21.5700
2022-09-28T11:34:59.443Z,21.5800
2022-09-28T11:35:54.105Z,21.5600
2022-09-28T11:36:59.650Z,21.5800
2022-09-28T11:37:58.476Z,21.5400
2022-09-28T11:39:00.689Z,21.5400
2022-09-28T11:40:02.901Z,21.5600
2022-09-28T11:41:05.185Z,21.5800
2022-09-28T11:42:07.329Z,21.5500
2022-09-28T11:43:10.668Z,21.5400
2022-09-28T11:44:11.773Z,21.5400
2022-09-28T11:45:13.987Z,21.5600
2022-09-28T11:46:16.316Z,21.5600
2022-09-28T11:47:16.277Z,21.5700
2022-09-28T11:48:18.506Z,21.5800
2022-09-28T11:49:20.685Z,21.5800
2022-09-28T11:50:24.537Z,21.5900
2022-09-28T11:51:25.205Z,21.5800
2022-09-28T11:52:27.480Z,21.5900
2022-09-28T11:53:29.745Z,21.6000
2022-09-28T11:54:31.964Z,21.6100
2022-09-28T11:55:34.263Z,21.6300
2022-09-28T11:56:34.443Z,21.6300
2022-09-28T11:57:36.729Z,21.6500
2022-09-28T11:58:38.979Z,21.6600
2022-09-28T11:59:41.262Z,21.6700
2022-09-28T12:00:43.513Z,21.6700
2022-09-28T12:01:45.787Z,21.6800
2022-09-28T12:02:48.228Z,21.6700
2022-09-28T12:03:50.511Z,21.6800
2022-09-28T12:04:50.445Z,21.7100
2022-09-28T12:05:52.673Z,21.6800
2022-09-28T12:06:54.964Z,21.7000
2022-09-28T12:07:57.229Z,21.6700
2022-09-28T12:08:59.424Z,21.6700
2022-09-28T12:10:01.663Z,21.6600
2022-09-28T12:11:03.887Z,21.6600
2022-09-28T12:12:06.148Z,21.6500
2022-09-28T12:13:08.510Z,21.6500
2022-09-28T12:14:10.603Z,21.6500
2022-09-28T12:15:12.844Z,21.6600
2022-09-28T12:16:32.677Z,21.6700
2022-09-28T12:17:19.840Z,21.6600
2022-09-28T12:18:17.473Z,21.6500
2022-09-28T12:19:19.774Z,21.6600
2022-09-28T12:20:21.789Z,21.6500
2022-09-28T12:21:23.974Z,21.6600
2022-09-28T12:22:26.204Z,21.6400
2022-09-28T12:23:28.465Z,21.6500
2022-09-28T12:24:30.728Z,21.6200
2022-09-28T12:25:32.995Z,21.6200
2022-09-28T12:26:37.336Z,21.6200
2022-09-28T12:27:35.314Z,21.6200
2022-09-28T12:28:37.577Z,21.6100
2022-09-28T12:29:39.781Z,21.6000
2022-09-28T12:30:42.104Z,21.6000
2022-09-28T12:31:44.322Z,21.6000
2022-09-28T12:32:46.501Z,21.6300